createdAt,value
2022-09-01T14:11:58.064Z,98796.34
2022-09-01T14:14:25.137Z,98795.28
2022-09-01T14:16:52.080Z,98793.69
2022-09-01T14:19:19.187Z,98791.00
2022-09-01T14:21:47.439Z,98789.66
2022-09-01T14:24:15.125Z,98796.84
2022-09-01T14:26:42.230Z,98786.75
2022-09-01T14:29:09.669Z,98800.56
2022-09-01T14:31:37.956Z,98797.00
2022-09-01T14:34:05.349Z,98787.38
2022-09-01T14:55:58.975Z,98784.69
2022-09-01T14:58:26.933Z,98792.44
2022-09-01T15:01:03.606Z,98788.59
2022-09-01T15:03:34.793Z,98786.09
2022-09-01T15:06:01.656Z,98794.66
2022-09-01T15:08:28.523Z,98782.53
2022-09-01T15:10:55.371Z,98788.03
2022-09-01T15:13:22.391Z,98793.53
2022-09-01T15:15:49.379Z,98788.28
2022-09-01T15:18:16.352Z,98792.72
2022-09-01T15:20:45.995Z,98791.63
2022-09-01T15:23:20.823Z,98794.94
2022-09-01T15:25:48.156Z,98796.03
2022-09-01T15:28:15.267Z,98789.69
2022-09-01T15:30:42.235Z,98789.13
2022-09-01T15:33:15.374Z,98795.47
2022-09-01T15:35:43.566Z,98788.59
2022-09-01T15:38:10.611Z,98780.84
2022-09-01T15:40:42.932Z,98785.53
2022-09-01T15:43:09.947Z,98784.44
2022-09-01T15:45:36.879Z,98785.81
2022-09-01T15:48:03.808Z,98778.66
2022-09-01T15:50:30.696Z,98788.03
2022-09-01T15:53:02.120Z,98790.22
2022-09-01T15:55:41.237Z,98792.44
2022-09-01T15:58:09.054Z,98791.88
2022-09-01T16:00:36.128Z,98795.22
2022-09-01T16:03:05.773Z,98796.03
2022-09-01T16:05:34.569Z,98792.97
2022-09-01T16:08:01.764Z,98794.63
2022-09-01T16:10:31.345Z,98808.97
2022-09-01T16:13:01.676Z,98795.19
2022-09-01T16:15:28.560Z,98807.00
2022-09-01T16:18:20.016Z,98814.19
2022-09-01T16:20:55.497Z,98799.03
2022-09-01T16:23:24.267Z,98808.09
2022-09-01T16:25:51.147Z,98805.63
2022-09-01T16:28:29.151Z,98809.47
2022-09-01T16:31:08.253Z,98802.03
2022-09-01T16:36:15.545Z,98813.34
2022-09-01T16:38:54.491Z,98811.41
2022-09-01T16:41:44.137Z,98814.44
2022-09-01T16:44:16.718Z,98817.72
2022-09-01T16:47:42.139Z,98810.84
2022-09-01T16:50:21.039Z,98812.22
2022-09-01T16:53:05.811Z,98817.69
2022-09-01T16:56:17.699Z,98819.06
2022-09-01T16:58:59.704Z,98815.47
2022-09-01T17:01:38.675Z,98813.00
2022-09-01T17:04:29.168Z,98827.03
2022-09-01T17:07:15.153Z,98826.75
2022-09-01T17:09:46.542Z,98834.97
2022-09-01T17:12:16.226Z,98836.38
2022-09-01T17:14:47.693Z,98842.94
2022-09-01T17:17:18.479Z,98843.75
2022-09-01T17:19:50.263Z,98840.72
2022-09-01T17:22:17.168Z,98832.97
2022-09-01T17:24:46.266Z,98838.00
2022-09-01T17:27:21.838Z,98846.28
2022-09-01T17:29:52.055Z,98838.03
2022-09-01T17:32:37.412Z,98845.13
2022-09-01T17:35:15.313Z,98848.72
2022-09-01T17:37:56.330Z,98848.66
2022-09-01T17:40:41.277Z,98853.09
2022-09-01T17:43:18.385Z,98857.81
2022-09-01T17:45:51.534Z,98854.53
2022-09-01T17:48:20.983Z,98859.00
2022-09-01T17:51:01.039Z,98852.44
2022-09-01T17:53:35.363Z,98855.97
2022-09-01T17:56:09.789Z,98857.38
2022-09-01T17:59:07.662Z,98858.22
2022-09-01T18:01:41.313Z,98866.22
2022-09-01T18:04:43.323Z,98863.44
2022-09-01T18:07:27.345Z,98859.06
2022-09-01T18:09:55.588Z,98871.75
2022-09-01T18:12:27.592Z,98878.91
2022-09-01T18:15:11.145Z,98879.47
2022-09-01T18:18:06.308Z,98885.25
2022-09-01T18:20:38.888Z,98881.66
2022-09-01T18:23:07.613Z,98884.41
2022-09-01T18:25:42.401Z,98886.63
2022-09-01T18:28:09.748Z,98881.69
2022-09-01T18:31:14.277Z,98886.38
2022-09-01T18:33:44.449Z,98883.34
2022-09-01T18:36:23.037Z,98885.81
2022-09-01T18:38:51.673Z,98883.63
2022-09-01T18:41:52.017Z,98882.78
2022-09-01T18:44:27.537Z,98887.75
2022-09-01T18:46:54.404Z,98884.97
2022-09-01T18:49:49.340Z,98887.19
2022-09-01T18:52:33.538Z,98888.56
2022-09-01T18:55:12.876Z,98886.09
2022-09-01T18:57:40.543Z,98883.34
2022-09-01T19:00:18.173Z,98895.19
2022-09-01T19:03:28.410Z,98898.78
2022-09-01T19:06:28.343Z,98895.72
2022-09-01T19:09:21.025Z,98896.84
2022-09-01T19:12:14.189Z,98895.47
2022-09-01T19:15:08.642Z,98896.59
2022-09-01T19:17:50.610Z,98896.31
2022-09-01T19:20:19.122Z,98908.72
2022-09-01T19:23:01.401Z,98907.63
2022-09-01T19:25:34.227Z,98901.00
2022-09-01T19:28:11.010Z,98904.59
2022-09-01T19:30:47.831Z,98911.75
2022-09-01T19:33:17.219Z,98918.94
2022-09-01T19:35:44.629Z,98910.41
2022-09-01T19:38:13.583Z,98908.75
2022-09-01T19:40:40.451Z,98909.31
2022-09-01T19:43:10.612Z,98912.06
2022-09-01T19:46:19.284Z,98906.56
2022-09-01T19:49:13.451Z,98909.31
2022-09-01T19:52:08.115Z,98910.97
2022-09-01T19:54:53.671Z,98912.66
2022-09-01T19:57:29.145Z,98908.22
2022-09-01T20:00:11.170Z,98918.16
2022-09-01T20:03:02.513Z,98914.56
2022-09-01T20:05:32.242Z,98914.84
2022-09-01T20:08:23.947Z,98912.66
2022-09-01T20:11:01.593Z,98917.31
2022-09-01T20:13:34.129Z,98915.41
2022-09-01T20:16:01.025Z,98926.44
2022-09-01T20:18:31.366Z,98923.69
2022-09-01T20:21:04.581Z,98920.09
2022-09-01T20:23:36.892Z,98921.75
2022-09-01T20:26:06.761Z,98912.66
2022-09-01T20:28:45.608Z,98913.47
2022-09-01T20:31:26.252Z,98910.72
2022-09-01T20:33:55.020Z,98906.31
2022-09-01T20:36:50.978Z,98912.66
2022-09-01T20:39:59.147Z,98915.41
2022-09-01T20:42:44.053Z,98916.50
2022-09-01T20:45:17.231Z,98916.50
2022-09-01T20:47:53.442Z,98916.50
2022-09-01T20:50:21.445Z,98921.19
2022-09-01T20:52:57.018Z,98916.50
2022-09-01T20:55:33.524Z,98916.50
2022-09-01T20:58:06.051Z,98923.94
2022-09-01T21:00:35.821Z,98916.50
2022-09-01T21:03:21.079Z,98913.75
2022-09-01T21:06:13.768Z,98916.50
2022-09-01T21:08:46.375Z,98920.34
2022-09-01T21:11:27.625Z,98929.44
2022-09-01T21:14:04.074Z,98920.34
2022-09-01T21:16:52.744Z,98929.72
2022-09-01T21:19:51.935Z,98935.22
2022-09-01T21:22:22.165Z,98937.16
2022-09-01T21:24:49.540Z,98934.38
2022-09-01T21:27:24.298Z,98931.63
2022-09-01T21:29:51.103Z,98922.53
2022-09-01T21:32:18.055Z,98927.22
2022-09-01T21:34:45.558Z,98936.31
2022-09-01T21:37:12.655Z,98928.31
2022-09-01T21:39:39.964Z,98932.72
2022-09-01T21:42:08.059Z,98928.56
2022-09-01T21:44:34.989Z,98933.81
2022-09-01T21:47:01.839Z,98934.66
2022-09-01T21:49:28.783Z,98928.31
2022-09-01T21:51:59.030Z,98935.75
2022-09-01T21:54:25.904Z,98934.09
2022-09-01T21:56:53.570Z,98931.31
2022-09-01T21:59:20.600Z,98934.91
2022-09-01T22:01:47.776Z,98925.00
2022-09-01T22:04:15.179Z,98937.97
2022-09-01T22:06:42.125Z,98932.44
2022-09-01T22:09:20.764Z,98934.38
2022-09-01T22:11:49.326Z,98936.28
2022-09-01T22:14:16.198Z,98937.13
2022-09-01T22:16:43.249Z,98941.81
2022-09-01T22:19:10.158Z,98940.72
2022-09-01T22:21:37.612Z,98937.97
2022-09-01T22:24:05.499Z,98944.56
2022-09-01T22:26:32.712Z,98947.31
2022-09-01T22:29:00.446Z,98939.31
2022-09-01T22:31:28.361Z,98938.47
2022-09-01T22:33:55.410Z,98943.16
2022-09-01T22:36:24.455Z,98944.00
2022-09-01T22:38:51.347Z,98944.00
2022-09-01T22:41:22.200Z,98945.66
2022-09-01T22:43:49.133Z,98938.47
2022-09-01T22:46:16.477Z,98938.78
2022-09-01T22:48:46.605Z,98946.75
2022-09-01T22:51:14.829Z,98947.03
2022-09-01T22:53:42.515Z,98946.22
2022-09-01T22:56:13.988Z,98949.81
2022-09-01T22:58:41.148Z,98947.03
2022-09-01T23:01:11.072Z,98951.72
2022-09-01T23:03:38.591Z,98940.69
2022-09-01T23:06:07.423Z,98936.84
2022-09-01T23:08:34.333Z,98934.63
2022-09-01T23:11:01.176Z,98925.25
2022-09-01T23:13:28.521Z,98931.84
2022-09-01T23:15:56.704Z,98926.91
2022-09-01T23:18:24.299Z,98925.25
2022-09-01T23:20:51.245Z,98926.63
2022-09-01T23:23:18.314Z,98935.44
2022-09-01T23:25:45.275Z,98938.19
2022-09-01T23:28:17.039Z,98939.28
2022-09-01T23:30:47.050Z,98936.53
2022-09-01T23:33:14.268Z,98941.25
2022-09-01T23:35:42.728Z,98938.50
2022-09-01T23:38:10.890Z,98928.56
2022-09-01T23:40:41.970Z,98931.31
2022-09-01T23:43:09.054Z,98923.03
2022-09-01T23:45:43.551Z,98923.03
2022-09-01T23:48:12.968Z,98924.13
2022-09-01T23:50:47.549Z,98920.56
2022-09-01T23:53:14.440Z,98921.66
2022-09-01T23:55:49.885Z,98921.66
2022-09-01T23:58:17.120Z,98918.88
